sensor_id;sensor_type;location;lat;lon;timestamp;P1;durP1;ratioP1;P2;durP2;ratioP2
3527;SDS011;1778;47.966;7.854;2024-01-15T00:00:47;14.47;;;6.43;;
3527;SDS011;1778;47.966;7.854;2024-01-15T00:01:50;12.83;;;6.33;;
3527;SDS011;1778;47.966;7.854;2024-01-15T00:02:51;15.77;;;5.60;;
3527;SDS011;1778;47.966;7.854;2024-01-15T00:03:53;19.30;;;8.40;;
3527;SDS011;1778;47.966;7.854;2024-01-15T00:04:54;14.00;;;6.07;;
3527;SDS011;1778;47.966;7.854;2024-01-15T00:05:56;12.33;;;6.43;;
3527;SDS011;1778;47.966;7.854;2024-01-15T00:06:57;13.03;;;6.07;;
3527;SDS011;1778;47.966;7.854;2024-01-15T00:07:58;13.97;;;5.33;;
3527;SDS011;1778;47.966;7.854;2024-01-15T00:09:00;8.70;;;5.30;;
3527;SDS011;1778;47.966;7.854;2024-01-15T00:10:02;20.77;;;8.00;;
3527;SDS011;1778;47.966;7.854;2024-01-15T00:11:03;11.77;;;7.20;;
3527;SDS011;1778;47.966;7.854;2024-01-15T00:12:05;13.70;;;6.53;;
3527;SDS011;1778;47.966;7.854;2024-01-15T00:13:07;17.00;;;6.63;;
3527;SDS011;1778;47.966;7.854;2024-01-15T00:14:09;14.20;;;6.90;;
3527;SDS011;1778;47.966;7.854;2024-01-15T00:15:10;10.30;;;5.73;;
3527;SDS011;1778;47.966;7.854;2024-01-15T00:16:11;15.10;;;6.77;;
3527;SDS011;1778;47.966;7.854;2024-01-15T00:17:13;25.53;;;6.87;;
3527;SDS011;1778;47.966;7.854;2024-01-15T00:18:14;14.83;;;7.03;;
3527;SDS011;1778;47.966;7.854;2024-01-15T00:19:15;13.90;;;6.10;;
3527;SDS011;1778;47.966;7.854;2024-01-15T00:20:17;11.47;;;5.57;;
3527;SDS011;1778;47.966;7.854;2024-01-15T00:21:19;19.83;;;7.13;;
3527;SDS011;1778;47.966;7.854;2024-01-15T00:22:20;10.70;;;7.00;;
3527;SDS011;1778;47.966;7.854;2024-01-15T00:23:22;15.33;;;6.17;;
3527;SDS011;1778;47.966;7.854;2024-01-15T00:24:23;12.03;;;5.33;;
3527;SDS011;1778;47.966;7.854;2024-01-15T00:25:25;10.17;;;5.67;;
3527;SDS011;1778;47.966;7.854;2024-01-15T00:26:26;22.10;;;6.73;;
3527;SDS011;1778;47.966;7.854;2024-01-15T00:27:28;8.37;;;5.50;;
3527;SDS011;1778;47.966;7.854;2024-01-15T00:28:29;14.07;;;5.90;;
3527;SDS011;1778;47.966;7.854;2024-01-15T00:29:31;16.13;;;5.90;;
3527;SDS011;1778;47.966;7.854;2024-01-15T00:30:32;11.90;;;5.80;;
3527;SDS011;1778;47.966;7.854;2024-01-15T00:31:34;12.20;;;4.63;;
3527;SDS011;1778;47.966;7.854;2024-01-15T00:32:36;10.40;;;6.13;;
3527;SDS011;1778;47.966;7.854;2024-01-15T00:33:37;7.63;;;4.80;;
3527;SDS011;1778;47.966;7.854;2024-01-15T00:34:39;11.17;;;5.97;;
3527;SDS011;1778;47.966;7.854;2024-01-15T00:35:40;11.30;;;4.93;;
3527;SDS011;1778;47.966;7.854;2024-01-15T00:36:42;12.10;;;5.63;;
3527;SDS011;1778;47.966;7.854;2024-01-15T00:37:44;12.50;;;4.80;;
3527;SDS011;1778;47.966;7.854;2024-01-15T00:38:46;15.87;;;6.53;;
3527;SDS011;1778;47.966;7.854;2024-01-15T00:39:48;11.80;;;4.70;;
3527;SDS011;1778;47.966;7.854;2024-01-15T00:40:49;15.77;;;6.50;;
3527;SDS011;1778;47.966;7.854;2024-01-15T00:41:51;12.13;;;5.83;;
3527;SDS011;1778;47.966;7.854;2024-01-15T00:42:52;12.33;;;5.93;;
3527;SDS011;1778;47.966;7.854;2024-01-15T00:43:54;7.30;;;5.10;;
3527;SDS011;1778;47.966;7.854;2024-01-15T00:44:56;12.27;;;6.80;;
3527;SDS011;1778;47.966;7.854;2024-01-15T00:45:58;14.55;;;5.78;;
3527;SDS011;1778;47.966;7.854;2024-01-15T00:47:02;8.47;;;4.40;;
3527;SDS011;1778;47.966;7.854;2024-01-15T00:48:03;10.60;;;5.70;;
3527;SDS011;1778;47.966;7.854;2024-01-15T00:49:05;15.03;;;5.53;;
3527;SDS011;1778;47.966;7.854;2024-01-15T00:50:07;10.53;;;5.10;;
3527;SDS011;1778;47.966;7.854;2024-01-15T00:51:09;16.47;;;6.87;;
3527;SDS011;1778;47.966;7.854;2024-01-15T00:52:10;13.13;;;5.05;;
3527;SDS011;1778;47.966;7.854;2024-01-15T00:53:12;13.10;;;7.40;;
3527;SDS011;1778;47.966;7.854;2024-01-15T00:54:13;9.73;;;4.93;;
3527;SDS011;1778;47.966;7.854;2024-01-15T00:55:15;15.50;;;5.43;;
3527;SDS011;1778;47.966;7.854;2024-01-15T00:56:16;13.53;;;6.23;;
3527;SDS011;1778;47.966;7.854;2024-01-15T00:57:18;13.87;;;4.93;;
3527;SDS011;1778;47.966;7.854;2024-01-15T00:58:20;10.20;;;6.00;;
3527;SDS011;1778;47.966;7.854;2024-01-15T00:59:21;14.80;;;5.60;;
3527;SDS011;1778;47.966;7.854;2024-01-15T01:00:23;11.60;;;5.20;;
3527;SDS011;1778;47.966;7.854;2024-01-15T01:01:24;9.90;;;6.00;;
3527;SDS011;1778;47.966;7.854;2024-01-15T01:02:26;13.30;;;6.27;;
3527;SDS011;1778;47.966;7.854;2024-01-15T01:03:27;16.80;;;6.57;;
3527;SDS011;1778;47.966;7.854;2024-01-15T01:04:29;10.60;;;5.67;;
3527;SDS011;1778;47.966;7.854;2024-01-15T01:05:30;13.37;;;5.73;;
3527;SDS011;1778;47.966;7.854;2024-01-15T01:06:32;14.13;;;5.47;;
3527;SDS011;1778;47.966;7.854;2024-01-15T01:07:34;12.20;;;5.47;;
3527;SDS011;1778;47.966;7.854;2024-01-15T01:08:35;11.03;;;4.33;;
3527;SDS011;1778;47.966;7.854;2024-01-15T01:09:37;14.13;;;5.18;;
3527;SDS011;1778;47.966;7.854;2024-01-15T01:10:38;15.40;;;5.43;;
3527;SDS011;1778;47.966;7.854;2024-01-15T01:11:40;10.67;;;5.07;;
3527;SDS011;1778;47.966;7.854;2024-01-15T01:12:42;13.40;;;4.72;;
3527;SDS011;1778;47.966;7.854;2024-01-15T01:13:44;12.70;;;4.57;;
3527;SDS011;1778;47.966;7.854;2024-01-15T01:14:45;8.53;;;5.17;;
3527;SDS011;1778;47.966;7.854;2024-01-15T01:15:46;12.88;;;5.32;;
3527;SDS011;1778;47.966;7.854;2024-01-15T01:16:48;15.30;;;3.90;;
3527;SDS011;1778;47.966;7.854;2024-01-15T01:17:49;13.83;;;5.73;;
3527;SDS011;1778;47.966;7.854;2024-01-15T01:18:51;10.45;;;5.85;;
3527;SDS011;1778;47.966;7.854;2024-01-15T01:19:53;16.57;;;5.47;;
3527;SDS011;1778;47.966;7.854;2024-01-15T01:20:54;12.50;;;5.40;;
3527;SDS011;1778;47.966;7.854;2024-01-15T01:21:56;6.75;;;4.32;;
3527;SDS011;1778;47.966;7.854;2024-01-15T01:22:57;8.93;;;4.53;;
3527;SDS011;1778;47.966;7.854;2024-01-15T01:23:59;12.33;;;4.70;;
3527;SDS011;1778;47.966;7.854;2024-01-15T01:25:00;13.02;;;5.10;;
3527;SDS011;1778;47.966;7.854;2024-01-15T01:26:01;6.97;;;3.70;;
3527;SDS011;1778;47.966;7.854;2024-01-15T01:27:03;24.07;;;5.60;;
3527;SDS011;1778;47.966;7.854;2024-01-15T01:28:05;10.77;;;5.75;;
3527;SDS011;1778;47.966;7.854;2024-01-15T01:29:06;8.07;;;4.40;;
3527;SDS011;1778;47.966;7.854;2024-01-15T01:30:08;6.00;;;3.97;;
3527;SDS011;1778;47.966;7.854;2024-01-15T01:31:10;8.47;;;4.57;;
3527;SDS011;1778;47.966;7.854;2024-01-15T01:32:11;9.20;;;4.50;;
3527;SDS011;1778;47.966;7.854;2024-01-15T01:33:13;7.20;;;4.13;;
3527;SDS011;1778;47.966;7.854;2024-01-15T01:34:15;9.10;;;4.93;;
3527;SDS011;1778;47.966;7.854;2024-01-15T01:35:17;11.37;;;5.00;;
3527;SDS011;1778;47.966;7.854;2024-01-15T01:36:18;9.77;;;4.67;;
3527;SDS011;1778;47.966;7.854;2024-01-15T01:37:20;10.57;;;4.90;;
3527;SDS011;1778;47.966;7.854;2024-01-15T01:38:21;9.00;;;4.97;;
3527;SDS011;1778;47.966;7.854;2024-01-15T01:39:23;14.70;;;4.25;;
3527;SDS011;1778;47.966;7.854;2024-01-15T01:40:24;8.32;;;4.10;;
3527;SDS011;1778;47.966;7.854;2024-01-15T01:41:26;11.50;;;5.63;;
3527;SDS011;1778;47.966;7.854;2024-01-15T01:42:27;5.13;;;4.67;;
3527;SDS011;1778;47.966;7.854;2024-01-15T01:43:28;15.60;;;6.00;;
3527;SDS011;1778;47.966;7.854;2024-01-15T01:44:30;6.53;;;4.20;;
3527;SDS011;1778;47.966;7.854;2024-01-15T01:45:32;4.70;;;4.00;;
3527;SDS011;1778;47.966;7.854;2024-01-15T01:46:34;8.65;;;4.65;;
3527;SDS011;1778;47.966;7.854;2024-01-15T01:47:41;11.70;;;4.90;;
3527;SDS011;1778;47.966;7.854;2024-01-15T01:48:43;4.10;;;3.73;;
3527;SDS011;1778;47.966;7.854;2024-01-15T01:49:45;36.37;;;4.93;;
3527;SDS011;1778;47.966;7.854;2024-01-15T01:50:47;7.78;;;3.15;;
3527;SDS011;1778;47.966;7.854;2024-01-15T01:51:49;7.17;;;4.53;;
3527;SDS011;1778;47.966;7.854;2024-01-15T01:52:50;12.37;;;5.30;;
3527;SDS011;1778;47.966;7.854;2024-01-15T01:53:52;17.10;;;5.33;;
3527;SDS011;1778;47.966;7.854;2024-01-15T01:54:54;7.47;;;3.57;;
3527;SDS011;1778;47.966;7.854;2024-01-15T01:55:55;15.65;;;4.28;;
3527;SDS011;1778;47.966;7.854;2024-01-15T01:56:58;12.37;;;3.90;;
3527;SDS011;1778;47.966;7.854;2024-01-15T01:58:00;8.87;;;3.97;;
3527;SDS011;1778;47.966;7.854;2024-01-15T01:59:03;8.37;;;3.80;;
3527;SDS011;1778;47.966;7.854;2024-01-15T02:00:05;3.40;;;2.50;;
3527;SDS011;1778;47.966;7.854;2024-01-15T02:01:13;6.05;;;3.28;;
3527;SDS011;1778;47.966;7.854;2024-01-15T02:02:16;6.07;;;3.38;;
3527;SDS011;1778;47.966;7.854;2024-01-15T02:03:19;6.73;;;3.80;;
3527;SDS011;1778;47.966;7.854;2024-01-15T02:04:23;5.73;;;3.70;;
3527;SDS011;1778;47.966;7.854;2024-01-15T02:05:25;3.37;;;2.83;;
3527;SDS011;1778;47.966;7.854;2024-01-15T02:06:28;4.00;;;2.67;;
3527;SDS011;1778;47.966;7.854;2024-01-15T02:07:30;9.00;;;3.57;;
3527;SDS011;1778;47.966;7.854;2024-01-15T02:08:32;6.18;;;3.35;;
3527;SDS011;1778;47.966;7.854;2024-01-15T02:09:35;5.33;;;3.03;;
3527;SDS011;1778;47.966;7.854;2024-01-15T02:10:42;5.57;;;3.30;;
3527;SDS011;1778;47.966;7.854;2024-01-15T02:11:46;6.50;;;2.90;;
3527;SDS011;1778;47.966;7.854;2024-01-15T02:12:48;6.37;;;2.80;;
3527;SDS011;1778;47.966;7.854;2024-01-15T02:13:50;3.33;;;2.57;;
3527;SDS011;1778;47.966;7.854;2024-01-15T02:14:52;7.90;;;3.00;;
3527;SDS011;1778;47.966;7.854;2024-01-15T02:15:53;3.43;;;2.00;;
3527;SDS011;1778;47.966;7.854;2024-01-15T02:16:55;4.97;;;3.27;;
3527;SDS011;1778;47.966;7.854;2024-01-15T02:17:57;8.73;;;2.83;;
3527;SDS011;1778;47.966;7.854;2024-01-15T02:19:02;3.10;;;2.90;;
3527;SDS011;1778;47.966;7.854;2024-01-15T02:20:04;3.57;;;2.33;;
3527;SDS011;1778;47.966;7.854;2024-01-15T02:21:06;2.43;;;2.23;;
3527;SDS011;1778;47.966;7.854;2024-01-15T02:22:08;9.00;;;3.35;;
3527;SDS011;1778;47.966;7.854;2024-01-15T02:23:10;13.20;;;2.90;;
3527;SDS011;1778;47.966;7.854;2024-01-15T02:24:12;7.77;;;4.27;;
3527;SDS011;1778;47.966;7.854;2024-01-15T02:25:14;9.43;;;4.73;;
3527;SDS011;1778;47.966;7.854;2024-01-15T02:26:15;9.20;;;5.10;;
3527;SDS011;1778;47.966;7.854;2024-01-15T02:27:17;12.63;;;6.40;;
3527;SDS011;1778;47.966;7.854;2024-01-15T02:28:20;11.27;;;5.37;;
3527;SDS011;1778;47.966;7.854;2024-01-15T02:29:21;9.10;;;3.10;;
3527;SDS011;1778;47.966;7.854;2024-01-15T02:30:23;4.50;;;2.87;;
3527;SDS011;1778;47.966;7.854;2024-01-15T02:31:26;7.00;;;4.40;;
3527;SDS011;1778;47.966;7.854;2024-01-15T02:32:28;4.70;;;3.63;;
3527;SDS011;1778;47.966;7.854;2024-01-15T02:33:30;10.00;;;4.40;;
3527;SDS011;1778;47.966;7.854;2024-01-15T02:34:32;7.90;;;5.33;;
3527;SDS011;1778;47.966;7.854;2024-01-15T02:35:34;13.00;;;5.67;;
3527;SDS011;1778;47.966;7.854;2024-01-15T02:36:38;11.18;;;5.93;;
3527;SDS011;1778;47.966;7.854;2024-01-15T02:37:40;9.13;;;5.23;;
3527;SDS011;1778;47.966;7.854;2024-01-15T02:38:42;11.10;;;6.17;;
3527;SDS011;1778;47.966;7.854;2024-01-15T02:39:43;12.23;;;6.10;;
3527;SDS011;1778;47.966;7.854;2024-01-15T02:40:47;10.33;;;6.13;;
3527;SDS011;1778;47.966;7.854;2024-01-15T02:41:48;14.90;;;6.60;;
3527;SDS011;1778;47.966;7.854;2024-01-15T02:42:50;12.20;;;5.67;;
3527;SDS011;1778;47.966;7.854;2024-01-15T02:43:51;16.27;;;6.80;;
3527;SDS011;1778;47.966;7.854;2024-01-15T02:44:53;10.23;;;5.47;;
3527;SDS011;1778;47.966;7.854;2024-01-15T02:45:55;18.17;;;6.87;;
3527;SDS011;1778;47.966;7.854;2024-01-15T02:46:56;17.00;;;7.20;;
3527;SDS011;1778;47.966;7.854;2024-01-15T02:47:58;18.80;;;6.80;;
3527;SDS011;1778;47.966;7.854;2024-01-15T02:48:59;14.00;;;6.80;;
3527;SDS011;1778;47.966;7.854;2024-01-15T02:50:01;15.20;;;5.80;;
3527;SDS011;1778;47.966;7.854;2024-01-15T02:51:02;13.33;;;6.63;;
3527;SDS011;1778;47.966;7.854;2024-01-15T02:52:04;16.10;;;7.30;;
3527;SDS011;1778;47.966;7.854;2024-01-15T02:53:06;13.33;;;6.60;;
3527;SDS011;1778;47.966;7.854;2024-01-15T02:54:08;11.73;;;6.37;;
3527;SDS011;1778;47.966;7.854;2024-01-15T02:55:09;23.73;;;7.40;;
3527;SDS011;1778;47.966;7.854;2024-01-15T02:56:11;15.67;;;7.60;;
3527;SDS011;1778;47.966;7.854;2024-01-15T02:57:12;12.43;;;5.47;;
3527;SDS011;1778;47.966;7.854;2024-01-15T02:58:14;13.63;;;6.00;;
3527;SDS011;1778;47.966;7.854;2024-01-15T02:59:15;16.60;;;6.73;;
3527;SDS011;1778;47.966;7.854;2024-01-15T03:00:17;15.37;;;6.00;;
3527;SDS011;1778;47.966;7.854;2024-01-15T03:01:19;17.00;;;5.53;;
3527;SDS011;1778;47.966;7.854;2024-01-15T03:02:21;13.53;;;6.13;;
3527;SDS011;1778;47.966;7.854;2024-01-15T03:03:22;11.17;;;5.50;;
3527;SDS011;1778;47.966;7.854;2024-01-15T03:04:24;11.03;;;5.93;;
3527;SDS011;1778;47.966;7.854;2024-01-15T03:05:26;18.83;;;6.43;;
3527;SDS011;1778;47.966;7.854;2024-01-15T03:06:27;10.80;;;5.87;;
3527;SDS011;1778;47.966;7.854;2024-01-15T03:07:29;9.60;;;5.20;;
3527;SDS011;1778;47.966;7.854;2024-01-15T03:08:31;12.03;;;5.60;;
3527;SDS011;1778;47.966;7.854;2024-01-15T03:09:32;11.60;;;6.13;;
3527;SDS011;1778;47.966;7.854;2024-01-15T03:10:34;19.93;;;6.23;;
3527;SDS011;1778;47.966;7.854;2024-01-15T03:11:39;16.07;;;5.80;;
3527;SDS011;1778;47.966;7.854;2024-01-15T03:12:40;8.80;;;5.37;;
3527;SDS011;1778;47.966;7.854;2024-01-15T03:13:43;10.90;;;6.13;;
3527;SDS011;1778;47.966;7.854;2024-01-15T03:14:44;10.97;;;5.33;;
3527;SDS011;1778;47.966;7.854;2024-01-15T03:15:46;9.87;;;6.67;;
3527;SDS011;1778;47.966;7.854;2024-01-15T03:16:47;15.37;;;6.70;;
3527;SDS011;1778;47.966;7.854;2024-01-15T03:17:49;17.57;;;7.17;;
3527;SDS011;1778;47.966;7.854;2024-01-15T03:18:50;25.83;;;6.87;;
3527;SDS011;1778;47.966;7.854;2024-01-15T03:19:52;9.67;;;5.20;;
3527;SDS011;1778;47.966;7.854;2024-01-15T03:20:54;14.23;;;6.07;;
3527;SDS011;1778;47.966;7.854;2024-01-15T03:21:56;16.27;;;6.47;;
3527;SDS011;1778;47.966;7.854;2024-01-15T03:22:58;10.87;;;6.67;;
3527;SDS011;1778;47.966;7.854;2024-01-15T03:23:59;20.57;;;6.10;;
3527;SDS011;1778;47.966;7.854;2024-01-15T03:25:01;20.07;;;6.27;;
3527;SDS011;1778;47.966;7.854;2024-01-15T03:26:02;11.43;;;5.67;;
3527;SDS011;1778;47.966;7.854;2024-01-15T03:27:04;10.83;;;5.57;;
3527;SDS011;1778;47.966;7.854;2024-01-15T03:28:06;9.93;;;4.40;;
3527;SDS011;1778;47.966;7.854;2024-01-15T03:29:07;8.97;;;4.80;;
3527;SDS011;1778;47.966;7.854;2024-01-15T03:30:09;13.80;;;6.07;;
3527;SDS011;1778;47.966;7.854;2024-01-15T03:31:11;13.97;;;5.17;;
3527;SDS011;1778;47.966;7.854;2024-01-15T03:32:13;14.93;;;6.43;;
3527;SDS011;1778;47.966;7.854;2024-01-15T03:33:15;16.73;;;7.80;;
3527;SDS011;1778;47.966;7.854;2024-01-15T03:34:17;11.50;;;6.63;;
3527;SDS011;1778;47.966;7.854;2024-01-15T03:35:19;17.23;;;7.13;;
3527;SDS011;1778;47.966;7.854;2024-01-15T03:36:20;13.90;;;6.73;;
3527;SDS011;1778;47.966;7.854;2024-01-15T03:37:21;13.20;;;5.90;;
3527;SDS011;1778;47.966;7.854;2024-01-15T03:38:23;13.90;;;6.93;;
3527;SDS011;1778;47.966;7.854;2024-01-15T03:39:25;12.67;;;6.70;;
3527;SDS011;1778;47.966;7.854;2024-01-15T03:40:26;10.33;;;5.90;;
3527;SDS011;1778;47.966;7.854;2024-01-15T03:41:28;19.83;;;7.20;;
3527;SDS011;1778;47.966;7.854;2024-01-15T03:42:29;18.03;;;6.47;;
3527;SDS011;1778;47.966;7.854;2024-01-15T03:43:31;11.47;;;6.67;;
3527;SDS011;1778;47.966;7.854;2024-01-15T03:44:33;15.00;;;6.13;;
3527;SDS011;1778;47.966;7.854;2024-01-15T03:45:34;19.57;;;6.47;;
3527;SDS011;1778;47.966;7.854;2024-01-15T03:46:36;9.37;;;6.07;;
3527;SDS011;1778;47.966;7.854;2024-01-15T03:47:37;9.60;;;5.33;;
3527;SDS011;1778;47.966;7.854;2024-01-15T03:48:38;13.30;;;6.80;;
3527;SDS011;1778;47.966;7.854;2024-01-15T03:49:41;9.50;;;5.50;;
3527;SDS011;1778;47.966;7.854;2024-01-15T03:50:42;10.23;;;6.30;;
3527;SDS011;1778;47.966;7.854;2024-01-15T03:51:44;22.30;;;6.77;;
3527;SDS011;1778;47.966;7.854;2024-01-15T03:52:46;21.17;;;8.10;;
3527;SDS011;1778;47.966;7.854;2024-01-15T03:53:47;10.80;;;5.53;;
3527;SDS011;1778;47.966;7.854;2024-01-15T03:54:49;12.97;;;7.10;;
3527;SDS011;1778;47.966;7.854;2024-01-15T03:55:51;15.00;;;6.50;;
3527;SDS011;1778;47.966;7.854;2024-01-15T03:56:53;16.67;;;7.47;;
3527;SDS011;1778;47.966;7.854;2024-01-15T03:57:55;13.23;;;6.73;;
3527;SDS011;1778;47.966;7.854;2024-01-15T03:58:56;14.50;;;6.27;;
3527;SDS011;1778;47.966;7.854;2024-01-15T03:59:58;15.57;;;7.30;;
3527;SDS011;1778;47.966;7.854;2024-01-15T04:00:59;16.37;;;7.20;;
3527;SDS011;1778;47.966;7.854;2024-01-15T04:02:01;14.43;;;7.27;;
3527;SDS011;1778;47.966;7.854;2024-01-15T04:03:02;9.60;;;5.00;;
3527;SDS011;1778;47.966;7.854;2024-01-15T04:04:04;8.27;;;4.67;;
3527;SDS011;1778;47.966;7.854;2024-01-15T04:05:05;11.60;;;4.80;;
3527;SDS011;1778;47.966;7.854;2024-01-15T04:06:07;17.70;;;6.63;;
3527;SDS011;1778;47.966;7.854;2024-01-15T04:07:11;14.27;;;6.30;;
3527;SDS011;1778;47.966;7.854;2024-01-15T04:08:12;20.23;;;6.50;;
3527;SDS011;1778;47.966;7.854;2024-01-15T04:09:14;8.67;;;5.60;;
3527;SDS011;1778;47.966;7.854;2024-01-15T04:10:16;14.13;;;5.63;;
3527;SDS011;1778;47.966;7.854;2024-01-15T04:11:17;11.20;;;4.97;;
3527;SDS011;1778;47.966;7.854;2024-01-15T04:12:19;14.23;;;5.87;;
3527;SDS011;1778;47.966;7.854;2024-01-15T04:13:20;13.47;;;7.40;;
3527;SDS011;1778;47.966;7.854;2024-01-15T04:14:22;13.80;;;6.30;;
3527;SDS011;1778;47.966;7.854;2024-01-15T04:15:24;21.30;;;7.23;;
3527;SDS011;1778;47.966;7.854;2024-01-15T04:16:26;17.77;;;6.43;;
3527;SDS011;1778;47.966;7.854;2024-01-15T04:17:27;9.07;;;5.00;;
3527;SDS011;1778;47.966;7.854;2024-01-15T04:18:29;12.87;;;6.67;;
3527;SDS011;1778;47.966;7.854;2024-01-15T04:19:31;14.10;;;5.73;;
3527;SDS011;1778;47.966;7.854;2024-01-15T04:20:32;11.80;;;6.73;;
3527;SDS011;1778;47.966;7.854;2024-01-15T04:21:34;20.83;;;7.70;;
3527;SDS011;1778;47.966;7.854;2024-01-15T04:22:35;10.60;;;5.63;;
3527;SDS011;1778;47.966;7.854;2024-01-15T04:23:37;18.13;;;6.93;;
3527;SDS011;1778;47.966;7.854;2024-01-15T04:24:40;17.57;;;7.00;;
3527;SDS011;1778;47.966;7.854;2024-01-15T04:25:42;12.37;;;5.90;;
3527;SDS011;1778;47.966;7.854;2024-01-15T04:26:44;13.20;;;6.90;;
3527;SDS011;1778;47.966;7.854;2024-01-15T04:27:46;11.67;;;6.17;;
3527;SDS011;1778;47.966;7.854;2024-01-15T04:28:48;15.73;;;6.60;;
3527;SDS011;1778;47.966;7.854;2024-01-15T04:29:50;13.10;;;6.20;;
3527;SDS011;1778;47.966;7.854;2024-01-15T04:30:51;16.80;;;6.87;;
3527;SDS011;1778;47.966;7.854;2024-01-15T04:31:53;14.27;;;6.93;;
3527;SDS011;1778;47.966;7.854;2024-01-15T04:32:55;19.53;;;6.20;;
3527;SDS011;1778;47.966;7.854;2024-01-15T04:33:56;24.40;;;6.80;;
3527;SDS011;1778;47.966;7.854;2024-01-15T04:34:58;16.37;;;5.93;;
3527;SDS011;1778;47.966;7.854;2024-01-15T04:36:03;15.80;;;7.67;;
3527;SDS011;1778;47.966;7.854;2024-01-15T04:37:06;15.60;;;6.93;;
3527;SDS011;1778;47.966;7.854;2024-01-15T04:38:08;11.23;;;5.20;;
3527;SDS011;1778;47.966;7.854;2024-01-15T04:39:09;9.70;;;5.80;;
3527;SDS011;1778;47.966;7.854;2024-01-15T04:40:12;11.33;;;6.30;;
3527;SDS011;1778;47.966;7.854;2024-01-15T04:41:14;16.67;;;7.30;;
3527;SDS011;1778;47.966;7.854;2024-01-15T04:42:17;16.63;;;6.27;;
3527;SDS011;1778;47.966;7.854;2024-01-15T04:43:18;19.60;;;7.73;;
3527;SDS011;1778;47.966;7.854;2024-01-15T04:44:19;14.30;;;6.43;;
3527;SDS011;1778;47.966;7.854;2024-01-15T04:45:21;20.37;;;7.33;;
3527;SDS011;1778;47.966;7.854;2024-01-15T04:46:29;16.90;;;7.43;;
3527;SDS011;1778;47.966;7.854;2024-01-15T04:47:30;20.80;;;7.10;;
3527;SDS011;1778;47.966;7.854;2024-01-15T04:48:31;19.70;;;7.53;;
3527;SDS011;1778;47.966;7.854;2024-01-15T04:49:33;18.77;;;6.80;;
3527;SDS011;1778;47.966;7.854;2024-01-15T04:50:35;22.30;;;7.40;;
3527;SDS011;1778;47.966;7.854;2024-01-15T04:51:36;10.90;;;5.77;;
3527;SDS011;1778;47.966;7.854;2024-01-15T04:52:38;17.40;;;6.63;;
3527;SDS011;1778;47.966;7.854;2024-01-15T04:53:40;17.20;;;6.50;;
3527;SDS011;1778;47.966;7.854;2024-01-15T04:54:42;18.40;;;6.70;;
3527;SDS011;1778;47.966;7.854;2024-01-15T04:55:44;15.83;;;6.20;;
3527;SDS011;1778;47.966;7.854;2024-01-15T04:56:45;14.13;;;6.00;;
3527;SDS011;1778;47.966;7.854;2024-01-15T04:57:47;13.17;;;6.37;;
3527;SDS011;1778;47.966;7.854;2024-01-15T04:58:49;22.00;;;7.70;;
3527;SDS011;1778;47.966;7.854;2024-01-15T04:59:50;16.33;;;6.63;;
3527;SDS011;1778;47.966;7.854;2024-01-15T05:00:52;11.97;;;5.67;;
3527;SDS011;1778;47.966;7.854;2024-01-15T05:01:54;10.20;;;5.83;;
3527;SDS011;1778;47.966;7.854;2024-01-15T05:02:56;11.57;;;6.17;;
3527;SDS011;1778;47.966;7.854;2024-01-15T05:03:58;20.73;;;8.50;;
3527;SDS011;1778;47.966;7.854;2024-01-15T05:05:00;17.03;;;7.87;;
3527;SDS011;1778;47.966;7.854;2024-01-15T05:06:02;10.90;;;7.30;;
3527;SDS011;1778;47.966;7.854;2024-01-15T05:07:04;15.50;;;5.60;;
3527;SDS011;1778;47.966;7.854;2024-01-15T05:08:06;15.37;;;6.93;;
3527;SDS011;1778;47.966;7.854;2024-01-15T05:09:07;20.70;;;7.60;;
3527;SDS011;1778;47.966;7.854;2024-01-15T05:10:08;16.50;;;6.33;;
3527;SDS011;1778;47.966;7.854;2024-01-15T05:11:10;12.27;;;6.77;;
3527;SDS011;1778;47.966;7.854;2024-01-15T05:12:12;14.73;;;5.60;;
3527;SDS011;1778;47.966;7.854;2024-01-15T05:13:14;14.43;;;6.83;;
3527;SDS011;1778;47.966;7.854;2024-01-15T05:14:15;21.57;;;7.40;;
3527;SDS011;1778;47.966;7.854;2024-01-15T05:15:17;15.73;;;6.27;;
3527;SDS011;1778;47.966;7.854;2024-01-15T05:16:18;9.50;;;5.93;;
3527;SDS011;1778;47.966;7.854;2024-01-15T05:17:20;11.03;;;6.10;;
3527;SDS011;1778;47.966;7.854;2024-01-15T05:18:21;19.77;;;6.90;;
3527;SDS011;1778;47.966;7.854;2024-01-15T05:19:23;17.20;;;7.00;;
3527;SDS011;1778;47.966;7.854;2024-01-15T05:20:24;14.37;;;7.03;;
3527;SDS011;1778;47.966;7.854;2024-01-15T05:21:26;22.53;;;6.07;;
3527;SDS011;1778;47.966;7.854;2024-01-15T05:22:28;12.03;;;6.93;;
3527;SDS011;1778;47.966;7.854;2024-01-15T05:23:31;19.00;;;7.03;;
3527;SDS011;1778;47.966;7.854;2024-01-15T05:24:32;15.83;;;6.77;;
3527;SDS011;1778;47.966;7.854;2024-01-15T05:25:34;14.00;;;6.50;;
3527;SDS011;1778;47.966;7.854;2024-01-15T05:26:35;15.23;;;7.40;;
3527;SDS011;1778;47.966;7.854;2024-01-15T05:27:37;22.53;;;6.20;;
3527;SDS011;1778;47.966;7.854;2024-01-15T05:28:40;11.37;;;6.37;;
3527;SDS011;1778;47.966;7.854;2024-01-15T05:29:43;18.17;;;6.90;;
3527;SDS011;1778;47.966;7.854;2024-01-15T05:30:44;16.80;;;8.10;;
3527;SDS011;1778;47.966;7.854;2024-01-15T05:31:46;16.57;;;7.43;;
3527;SDS011;1778;47.966;7.854;2024-01-15T05:32:47;13.27;;;6.60;;
3527;SDS011;1778;47.966;7.854;2024-01-15T05:33:49;11.70;;;6.97;;
3527;SDS011;1778;47.966;7.854;2024-01-15T05:34:51;12.53;;;6.73;;
3527;SDS011;1778;47.966;7.854;2024-01-15T05:35:52;11.47;;;7.20;;
3527;SDS011;1778;47.966;7.854;2024-01-15T05:36:54;17.57;;;7.20;;
3527;SDS011;1778;47.966;7.854;2024-01-15T05:37:56;14.20;;;6.47;;
3527;SDS011;1778;47.966;7.854;2024-01-15T05:38:58;12.27;;;5.60;;
3527;SDS011;1778;47.966;7.854;2024-01-15T05:39:59;14.13;;;6.90;;
3527;SDS011;1778;47.966;7.854;2024-01-15T05:41:01;14.00;;;6.00;;
3527;SDS011;1778;47.966;7.854;2024-01-15T05:42:03;10.63;;;6.10;;
3527;SDS011;1778;47.966;7.854;2024-01-15T05:43:05;16.23;;;7.27;;
3527;SDS011;1778;47.966;7.854;2024-01-15T05:44:06;14.53;;;6.53;;
3527;SDS011;1778;47.966;7.854;2024-01-15T05:45:08;17.70;;;6.87;;
3527;SDS011;1778;47.966;7.854;2024-01-15T05:46:10;17.70;;;7.03;;
3527;SDS011;1778;47.966;7.854;2024-01-15T05:47:11;17.57;;;7.87;;
3527;SDS011;1778;47.966;7.854;2024-01-15T05:48:13;12.50;;;7.13;;
3527;SDS011;1778;47.966;7.854;2024-01-15T05:49:14;18.53;;;6.87;;
3527;SDS011;1778;47.966;7.854;2024-01-15T05:50:16;17.00;;;7.20;;
3527;SDS011;1778;47.966;7.854;2024-01-15T05:51:17;13.67;;;7.23;;
3527;SDS011;1778;47.966;7.854;2024-01-15T05:52:19;23.83;;;7.20;;
3527;SDS011;1778;47.966;7.854;2024-01-15T05:53:21;22.80;;;8.97;;
3527;SDS011;1778;47.966;7.854;2024-01-15T05:54:23;14.10;;;6.87;;
3527;SDS011;1778;47.966;7.854;2024-01-15T05:55:25;26.23;;;8.70;;
3527;SDS011;1778;47.966;7.854;2024-01-15T05:56:26;16.07;;;7.17;;
3527;SDS011;1778;47.966;7.854;2024-01-15T05:57:28;18.53;;;6.70;;
3527;SDS011;1778;47.966;7.854;2024-01-15T05:58:29;19.77;;;6.10;;
3527;SDS011;1778;47.966;7.854;2024-01-15T05:59:31;14.70;;;7.33;;
3527;SDS011;1778;47.966;7.854;2024-01-15T06:00:35;16.63;;;6.37;;
3527;SDS011;1778;47.966;7.854;2024-01-15T06:01:39;13.83;;;6.30;;
3527;SDS011;1778;47.966;7.854;2024-01-15T06:02:40;32.40;;;7.87;;
3527;SDS011;1778;47.966;7.854;2024-01-15T06:03:42;15.90;;;7.10;;
3527;SDS011;1778;47.966;7.854;2024-01-15T06:04:43;19.17;;;7.27;;
3527;SDS011;1778;47.966;7.854;2024-01-15T06:05:45;13.23;;;6.73;;
3527;SDS011;1778;47.966;7.854;2024-01-15T06:06:46;13.33;;;7.43;;
3527;SDS011;1778;47.966;7.854;2024-01-15T06:07:48;13.63;;;5.40;;
3527;SDS011;1778;47.966;7.854;2024-01-15T06:08:50;12.47;;;6.90;;
3527;SDS011;1778;47.966;7.854;2024-01-15T06:09:51;13.70;;;6.07;;
3527;SDS011;1778;47.966;7.854;2024-01-15T06:10:53;15.70;;;6.00;;
3527;SDS011;1778;47.966;7.854;2024-01-15T06:12:00;10.03;;;5.60;;
3527;SDS011;1778;47.966;7.854;2024-01-15T06:13:02;18.87;;;6.87;;
3527;SDS011;1778;47.966;7.854;2024-01-15T06:14:03;15.20;;;7.00;;
3527;SDS011;1778;47.966;7.854;2024-01-15T06:15:05;18.00;;;5.00;;
3527;SDS011;1778;47.966;7.854;2024-01-15T06:16:16;12.90;;;6.63;;
3527;SDS011;1778;47.966;7.854;2024-01-15T06:17:18;15.63;;;6.90;;
3527;SDS011;1778;47.966;7.854;2024-01-15T06:18:19;14.63;;;5.87;;
3527;SDS011;1778;47.966;7.854;2024-01-15T06:19:21;13.10;;;6.00;;
3527;SDS011;1778;47.966;7.854;2024-01-15T06:20:24;17.67;;;6.10;;